Time;durP1;ratioP1;P1;durP2;ratioP2;P2;SDS_P1;SDS_P2;PMS_P1;PMS_P2;Temp;Humidity;BMP_temperature;BMP_pressure;BME280_temperature;BME280_humidity;BME280_pressure;Samples;Min_cycle;Max_cycle;Signal;HPM_P1;HPM_P2
2022/09/13 00:01:46;;;;;;;8.82;5.22;;;20.60;56.10;;;;;;5085414;28;20032;-79
2022/09/13 00:04:12;;;;;;;7.68;5.22;;;20.50;56.90;;;;;;5076524;28;20575;-80
2022/09/13 00:06:38;;;;;;;7.32;5.07;;;20.50;56.80;;;;;;5078305;28;20032;-80
2022/09/13 00:09:03;;;;;;;9.77;5.10;;;20.50;56.40;;;;;;5096540;28;20524;-81
2022/09/13 00:11:30;;;;;;;6.78;4.82;;;20.30;56.20;;;;;;5084961;28;20383;-81
2022/09/13 00:13:57;;;;;;;7.63;4.70;;;20.30;56.30;;;;;;5069922;28;20153;-81
2022/09/13 00:16:25;;;;;;;6.70;4.78;;;20.40;56.10;;;;;;5095509;28;20157;-81
2022/09/13 00:18:52;;;;;;;8.68;5.03;;;20.40;56.00;;;;;;5095620;28;20421;-80
2022/09/13 00:21:19;;;;;;;7.15;4.88;;;20.40;55.90;;;;;;5078725;28;20028;-81
2022/09/13 00:23:47;;;;;;;6.53;5.10;;;20.40;56.00;;;;;;5077712;28;20027;-80
2022/09/13 00:26:18;;;;;;;6.75;4.90;;;20.40;55.90;;;;;;5096561;28;20032;-80
2022/09/13 00:28:44;;;;;;;5.93;4.60;;;20.40;56.20;;;;;;5096698;28;20038;-80
2022/09/13 00:31:11;;;;;;;7.78;4.63;;;20.50;56.30;;;;;;5078588;28;20028;-81
2022/09/13 00:33:37;;;;;;;5.80;4.75;;;20.60;56.10;;;;;;5095197;28;20070;-80
2022/09/13 00:36:08;;;;;;;7.88;4.60;;;20.40;56.00;;;;;;5073899;28;20086;-80
2022/09/13 00:38:35;;;;;;;5.43;4.20;;;20.30;56.20;;;;;;5072837;28;20098;-79
2022/09/13 00:41:07;;;;;;;6.60;4.35;;;20.30;56.40;;;;;;5072823;28;20024;-81
2022/09/13 00:43:56;;;;;;;6.65;4.82;;;20.20;56.90;;;;;;5076756;28;20475;-80
2022/09/13 00:46:27;;;;;;;6.45;4.50;;;20.20;56.90;;;;;;5094647;28;20481;-80
2022/09/13 00:48:59;;;;;;;5.80;4.13;;;20.20;56.90;;;;;;5093773;28;20077;-79
2022/09/13 00:51:27;;;;;;;5.30;4.70;;;20.30;56.80;;;;;;5094473;28;20012;-79
2022/09/13 00:53:55;;;;;;;6.78;4.78;;;20.30;56.90;;;;;;5093891;28;20059;-79
2022/09/13 00:56:38;;;;;;;6.75;4.20;;;20.40;56.80;;;;;;5076679;28;20056;-79
2022/09/13 00:59:18;;;;;;;7.57;5.07;;;20.40;56.90;;;;;;5093963;28;20054;-80
2022/09/13 01:01:52;;;;;;;7.63;4.75;;;20.40;56.90;;;;;;5095301;28;20031;-80
2022/09/13 01:04:19;;;;;;;5.28;4.28;;;20.50;56.80;;;;;;5081807;28;20044;-81
2022/09/13 01:06:46;;;;;;;5.95;4.40;;;20.40;57.00;;;;;;5094463;28;20020;-80
2022/09/13 01:09:12;;;;;;;6.95;4.60;;;20.50;56.80;;;;;;5094826;28;20024;-80
2022/09/13 01:12:03;;;;;;;7.18;4.90;;;20.50;56.90;;;;;;5074478;28;20177;-80
2022/09/13 01:14:29;;;;;;;;;;;20.50;56.50;;;;;;5087108;28;20027;-80
2022/09/13 01:16:55;;;;;;;5.93;4.60;;;20.50;56.30;;;;;;5083931;28;20350;-80
2022/09/13 01:19:20;;;;;;;6.00;4.30;;;20.60;55.80;;;;;;5095175;28;20035;-81
2022/09/13 01:21:52;;;;;;;6.82;4.68;;;20.60;55.90;;;;;;5075736;28;20028;-80
2022/09/13 01:24:29;;;;;;;7.70;3.92;;;20.60;55.80;;;;;;5094546;28;20032;-81
2022/09/13 01:27:14;;;;;;;6.30;4.35;;;20.70;55.60;;;;;;5095334;28;20031;-81
2022/09/13 01:29:54;;;;;;;5.72;4.35;;;20.70;55.10;;;;;;5094992;28;20103;-81
2022/09/13 01:32:35;;;;;;;4.95;4.13;;;20.50;55.50;;;;;;5076065;28;20028;-81
2022/09/13 01:35:22;;;;;;;7.97;4.20;;;20.50;55.30;;;;;;5094508;28;20490;-81
2022/09/13 01:38:03;;;;;;;5.95;4.60;;;20.40;55.30;;;;;;5077086;28;20028;-80
2022/09/13 01:40:56;;;;;;;5.43;4.45;;;20.20;55.70;;;;;;5076781;28;20391;-79
2022/09/13 01:43:53;;;;;;;6.40;5.05;;;20.00;55.80;;;;;;5094918;28;20047;-78
2022/09/13 01:46:40;;;;;;;9.40;4.95;;;19.90;56.30;;;;;;5079282;28;20042;-78
2022/09/13 01:49:17;;;;;;;6.47;4.60;;;19.80;56.50;;;;;;5076468;28;20024;-79
2022/09/13 01:52:31;;;;;;;7.10;4.43;;;19.90;56.40;;;;;;5065599;28;20033;-81
2022/09/13 01:55:04;;;;;;;5.72;4.60;;;19.90;55.90;;;;;;5065596;28;20481;-79
2022/09/13 01:57:53;;;;;;;7.13;5.03;;;19.70;56.40;;;;;;5094791;28;20020;-79
2022/09/13 02:00:18;;;;;;;5.38;4.45;;;19.50;56.60;;;;;;5091240;28;20030;-79
2022/09/13 02:03:03;;;;;;;5.13;3.95;;;19.50;56.70;;;;;;5094436;28;20020;-80
2022/09/13 02:05:54;;;;;;;7.90;4.53;;;19.40;57.20;;;;;;5074839;28;20431;-79
2022/09/13 02:08:34;;;;;;;7.07;4.53;;;19.50;56.50;;;;;;5074200;28;20103;-79
2022/09/13 02:11:10;;;;;;;7.85;5.03;;;19.50;56.20;;;;;;5080950;28;20479;-80
2022/09/13 02:13:41;;;;;;;9.70;4.40;;;19.60;55.80;;;;;;5078842;28;20031;-80
2022/09/13 02:16:25;;;;;;;7.57;5.10;;;19.30;56.10;;;;;;5094130;28;20135;-79
2022/09/13 02:18:57;;;;;;;5.90;4.75;;;19.10;56.60;;;;;;5059748;28;20029;-80
2022/09/13 02:21:31;;;;;;;6.53;4.90;;;18.90;56.90;;;;;;5057103;28;20028;-78
2022/09/13 02:24:05;;;;;;;6.22;4.70;;;19.10;56.70;;;;;;5076992;28;20082;-80
2022/09/13 02:26:36;;;;;;;5.70;4.15;;;19.20;56.20;;;;;;5074292;28;20375;-80
2022/09/13 02:29:09;;;;;;;6.30;4.50;;;19.20;56.40;;;;;;5079977;28;20028;-80
2022/09/13 02:32:00;;;;;;;5.80;4.10;;;19.20;56.10;;;;;;5075641;28;20078;-81
2022/09/13 02:34:33;;;;;;;5.28;4.32;;;19.20;56.80;;;;;;5075099;28;20035;-79
2022/09/13 02:37:00;;;;;;;5.80;4.72;;;19.20;56.60;;;;;;5083971;28;20424;-79
2022/09/13 02:39:31;;;;;;;6.25;5.03;;;19.20;56.00;;;;;;5092912;28;20036;-79
2022/09/13 02:42:15;;;;;;;5.07;4.10;;;19.30;56.00;;;;;;5093815;28;20027;-79
2022/09/13 02:44:51;;;;;;;6.63;4.35;;;19.40;56.00;;;;;;5086437;28;20036;-79
2022/09/13 02:47:44;;;;;;;4.97;3.90;;;19.50;55.80;;;;;;5080576;28;20020;-79
2022/09/13 02:50:32;;;;;;;6.25;4.20;;;19.50;55.70;;;;;;5075273;28;20028;-78
2022/09/13 02:52:58;;;;;;;6.18;4.30;;;19.60;55.20;;;;;;5073623;28;20024;-79
2022/09/13 02:55:39;;;;;;;5.43;4.10;;;19.60;55.40;;;;;;5066589;28;20040;-80
2022/09/13 02:58:13;;;;;;;5.55;4.50;;;19.60;55.30;;;;;;5066645;28;20021;-79
2022/09/13 03:00:39;;;;;;;5.80;4.80;;;19.60;55.20;;;;;;5069478;28;20041;-80
2022/09/13 03:03:10;;;;;;;6.00;4.57;;;19.40;55.00;;;;;;5064707;28;20097;-79
2022/09/13 03:05:35;;;;;;;6.20;4.50;;;19.30;55.10;;;;;;5073129;28;20539;-80
2022/09/13 03:08:02;;;;;;;5.65;4.60;;;19.20;55.40;;;;;;5060429;28;20037;-80
2022/09/13 03:10:43;;;;;;;8.55;4.35;;;19.10;55.60;;;;;;5058505;28;20093;-80
2022/09/13 03:13:42;;;;;;;7.25;4.88;;;19.20;55.60;;;;;;5093909;28;20027;-79
2022/09/13 03:16:29;;;;;;;7.13;5.00;;;19.00;55.70;;;;;;5074180;28;20489;-79
2022/09/13 03:18:55;;;;;;;6.45;5.00;;;18.80;55.90;;;;;;5092167;28;20020;-79
2022/09/13 03:21:39;;;;;;;5.75;4.95;;;18.50;56.60;;;;;;5075032;28;20374;-80
2022/09/13 03:24:34;;;;;;;6.10;4.60;;;18.60;56.60;;;;;;5092653;28;20072;-79
2022/09/13 03:27:13;;;;;;;7.05;5.03;;;18.40;56.70;;;;;;5074964;28;20027;-79
2022/09/13 03:29:43;;;;;;;8.23;4.85;;;18.50;56.30;;;;;;5075357;28;20115;-79
2022/09/13 03:32:34;;;;;;;6.32;5.10;;;18.40;56.70;;;;;;5091916;28;20027;-78
2022/09/13 03:35:24;;;;;;;10.85;4.97;;;18.30;56.50;;;;;;5081342;28;20062;-79
2022/09/13 03:37:59;;;;;;;5.65;4.50;;;18.30;56.60;;;;;;5073132;28;20440;-79
2022/09/13 03:40:53;;;;;;;7.43;4.43;;;18.40;56.60;;;;;;5093212;28;20112;-80
2022/09/13 03:43:29;;;;;;;6.65;5.30;;;18.40;56.20;;;;;;5075595;28;20030;-80
2022/09/13 03:46:00;;;;;;;9.77;4.90;;;18.20;56.60;;;;;;5075090;28;20107;-79
2022/09/13 03:48:28;;;;;;;;;;;18.20;56.40;;;;;;5075653;28;20036;-80
2022/09/13 03:50:54;;;;;;;6.82;4.30;;;18.30;56.50;;;;;;5079033;28;19904;-80
2022/09/13 03:56:19;;;;;;;7.95;4.78;;;18.40;56.10;;;;;;5092152;28;20059;-81
2022/09/13 03:58:46;;;;;;;8.57;4.90;;;18.30;56.00;;;;;;5092620;28;20487;-81
2022/09/13 04:01:12;;;;;;;9.88;4.65;;;18.20;56.00;;;;;;5057299;28;20032;-78
2022/09/13 04:03:38;;;;;;;7.03;4.82;;;18.10;56.20;;;;;;5063664;28;20052;-78
2022/09/13 04:06:05;;;;;;;8.15;5.15;;;18.00;56.60;;;;;;5070925;28;20024;-77
2022/09/13 04:08:32;;;;;;;7.03;4.78;;;17.80;56.50;;;;;;5073615;28;20478;-77
2022/09/13 04:10:58;;;;;;;7.50;4.53;;;17.80;56.50;;;;;;5089536;28;20024;-77
2022/09/13 04:13:23;;;;;;;9.23;4.93;;;17.80;56.70;;;;;;5074116;28;20024;-78
2022/09/13 04:15:49;;;;;;;11.95;5.13;;;17.80;56.60;;;;;;5089473;28;20032;-77
2022/09/13 04:18:16;;;;;;;6.10;5.05;;;17.70;56.70;;;;;;5075598;28;20466;-78
2022/09/13 04:20:41;;;;;;;8.98;5.30;;;17.70;56.70;;;;;;5091514;28;20020;-77
2022/09/13 04:23:07;;;;;;;6.10;4.93;;;17.60;56.60;;;;;;5057215;28;20029;-77
2022/09/13 04:25:33;;;;;;;7.82;5.10;;;17.60;56.40;;;;;;5074486;28;20491;-79
2022/09/13 04:27:59;;;;;;;12.50;5.50;;;17.50;56.80;;;;;;5074514;28;20043;-78
2022/09/13 04:30:26;;;;;;;7.03;5.38;;;17.60;56.60;;;;;;5073211;28;20077;-79
2022/09/13 04:32:53;;;;;;;6.45;5.07;;;17.70;56.90;;;;;;5092080;28;20044;-78
2022/09/13 04:35:19;;;;;;;6.82;5.10;;;17.70;56.70;;;;;;5095517;28;20028;-78
2022/09/13 04:37:45;;;;;;;7.50;5.80;;;17.70;56.40;;;;;;5077976;28;20468;-79
2022/09/13 04:40:11;;;;;;;8.18;5.50;;;17.60;56.80;;;;;;5092700;28;20632;-78
2022/09/13 04:42:37;;;;;;;15.43;7.38;;;17.80;57.00;;;;;;5077402;28;20032;-80
2022/09/13 04:45:05;;;;;;;7.07;5.20;;;17.90;56.90;;;;;;5089527;28;20017;-78
2022/09/13 04:47:30;;;;;;;6.45;4.93;;;18.00;57.00;;;;;;5057719;28;20039;-78
2022/09/13 04:49:56;;;;;;;7.88;5.28;;;18.20;57.10;;;;;;5089540;28;20095;-79
2022/09/13 04:52:22;;;;;;;5.85;4.40;;;18.40;56.80;;;;;;5073748;28;20131;-78
2022/09/13 04:54:48;;;;;;;7.05;5.10;;;18.50;56.40;;;;;;5079713;28;20036;-78
2022/09/13 04:57:15;;;;;;;6.97;4.72;;;18.70;56.60;;;;;;5077463;28;20059;-78
2022/09/13 04:59:41;;;;;;;6.97;4.30;;;18.80;56.30;;;;;;5077221;28;20081;-78
2022/09/13 05:02:07;;;;;;;6.75;4.85;;;18.90;56.20;;;;;;5077547;28;20120;-80
2022/09/13 05:04:33;;;;;;;6.47;4.50;;;19.00;56.30;;;;;;5077060;28;20040;-80
2022/09/13 05:06:58;;;;;;;7.85;4.68;;;19.10;56.40;;;;;;5077139;28;20027;-79
2022/09/13 05:09:24;;;;;;;6.03;4.72;;;19.20;56.10;;;;;;5077562;28;20035;-78
2022/09/13 05:11:50;;;;;;;6.25;4.60;;;19.30;55.80;;;;;;5076128;28;20028;-80
2022/09/13 05:14:15;;;;;;;6.25;4.10;;;19.30;55.80;;;;;;5094718;28;20077;-80
2022/09/13 05:16:41;;;;;;;6.85;4.50;;;19.30;55.90;;;;;;5073930;28;20025;-80
2022/09/13 05:19:09;;;;;;;6.43;4.70;;;19.20;56.20;;;;;;5081490;28;20020;-79
2022/09/13 05:21:34;;;;;;;5.40;4.50;;;19.20;56.40;;;;;;5085180;28;20056;-79
2022/09/13 05:24:00;;;;;;;8.07;4.30;;;19.20;56.50;;;;;;5069346;28;20115;-79
2022/09/13 05:26:30;;;;;;;10.30;4.63;;;19.30;56.70;;;;;;5064802;28;20050;-80
2022/09/13 05:28:59;;;;;;;7.10;4.57;;;19.30;57.10;;;;;;5069654;28;20069;-80
2022/09/13 05:31:31;;;;;;;5.07;4.07;;;19.50;57.20;;;;;;5085441;28;20032;-80
2022/09/13 05:34:06;;;;;;;8.10;4.80;;;19.50;56.90;;;;;;5061734;28;20032;-81
2022/09/13 05:36:32;;;;;;;5.85;4.32;;;19.60;56.90;;;;;;5074371;28;20119;-80
2022/09/13 05:38:58;;;;;;;6.10;4.47;;;19.70;57.00;;;;;;5095047;28;20020;-78
2022/09/13 05:41:24;;;;;;;6.78;4.50;;;19.70;57.00;;;;;;5075432;28;20323;-80
2022/09/13 05:43:50;;;;;;;6.20;4.35;;;19.80;57.10;;;;;;5082296;28;20020;-80
2022/09/13 05:46:18;;;;;;;6.00;4.60;;;19.90;57.00;;;;;;5059025;28;20028;-80
2022/09/13 05:48:45;;;;;;;6.97;5.07;;;20.10;56.70;;;;;;5078661;28;20040;-80
2022/09/13 05:51:16;;;;;;;7.28;5.20;;;20.20;56.60;;;;;;5071182;28;20383;-79
2022/09/13 05:53:47;;;;;;;6.55;5.35;;;20.30;56.70;;;;;;5080023;28;20016;-80
2022/09/13 05:56:24;;;;;;;6.80;4.75;;;20.40;56.70;;;;;;5055971;28;20020;-80
2022/09/13 05:58:52;;;;;;;8.18;4.85;;;20.50;56.80;;;;;;5074147;28;20021;-80
2022/09/13 06:01:19;;;;;;;7.43;4.57;;;20.60;56.80;;;;;;5086306;28;20397;-79
2022/09/13 06:03:50;;;;;;;8.55;4.22;;;20.70;56.40;;;;;;5072259;28;20048;-79
2022/09/13 06:06:16;;;;;;;6.97;4.35;;;20.80;56.50;;;;;;5056049;28;20078;-79
2022/09/13 06:08:42;;;;;;;7.03;4.40;;;20.90;56.60;;;;;;5083031;28;20062;-80
2022/09/13 06:11:10;;;;;;;7.07;4.88;;;21.00;56.90;;;;;;5073617;28;20110;-79
2022/09/13 06:13:37;;;;;;;5.88;4.03;;;21.00;56.30;;;;;;5058959;28;20021;-79
2022/09/13 06:16:06;;;;;;;6.75;4.65;;;21.10;56.20;;;;;;5082277;28;20077;-79
2022/09/13 06:18:33;;;;;;;7.03;4.68;;;21.30;56.30;;;;;;5060312;28;20427;-80
2022/09/13 06:21:07;;;;;;;6.78;4.93;;;21.40;56.50;;;;;;5068278;28;20028;-80
2022/09/13 06:23:33;;;;;;;6.03;4.28;;;21.50;56.50;;;;;;5084159;28;20051;-80
2022/09/13 06:26:11;;;;;;;6.43;4.47;;;21.50;56.80;;;;;;5062513;28;20081;-78
2022/09/13 06:28:37;;;;;;;7.03;4.38;;;21.40;56.80;;;;;;5086989;28;20526;-80
2022/09/13 06:31:06;;;;;;;4.90;3.88;;;21.50;56.90;;;;;;5089018;28;20047;-78
2022/09/13 06:33:32;;;;;;;11.43;9.65;;;21.50;56.60;;;;;;5077716;28;20043;-81
2022/09/13 06:36:28;;;;;;;7.85;4.53;;;21.20;57.40;;;;;;5065827;28;20081;-79
2022/09/13 06:38:55;;;;;;;8.25;4.50;;;21.50;57.30;;;;;;5046289;28;20115;-80
2022/09/13 06:41:23;;;;;;;5.47;4.05;;;21.70;56.40;;;;;;5071077;28;20020;-80
2022/09/13 06:43:57;;;;;;;8.82;4.30;;;21.70;56.70;;;;;;5073680;28;20016;-79
2022/09/13 06:46:23;;;;;;;12.63;4.80;;;21.80;56.70;;;;;;5067850;28;20028;-79
2022/09/13 06:48:49;;;;;;;5.25;4.22;;;22.00;56.60;;;;;;5073327;28;20024;-81
2022/09/13 06:51:17;;;;;;;9.13;3.90;;;22.30;55.80;;;;;;5072805;28;21747;-81
2022/09/13 06:53:44;;;;;;;5.00;3.75;;;22.30;55.70;;;;;;5073787;28;20028;-82
2022/09/13 06:56:16;;;;;;;6.35;3.38;;;22.00;55.70;;;;;;5056276;28;20032;-85
2022/09/13 06:58:43;;;;;;;8.73;4.55;;;21.50;56.40;;;;;;5074352;28;20051;-81
2022/09/13 07:01:13;;;;;;;8.50;7.03;;;21.40;57.40;;;;;;5075942;28;20096;-82
2022/09/13 07:03:41;;;;;;;7.78;6.55;;;21.70;57.00;;;;;;5080789;28;20077;-82
2022/09/13 07:06:15;;;;;;;5.55;3.60;;;21.80;56.40;;;;;;5058298;28;20055;-86
2022/09/13 07:08:42;;;;;;;5.60;3.60;;;22.10;55.90;;;;;;5073798;28;20382;-84
2022/09/13 07:11:10;;;;;;;6.75;4.13;;;22.00;55.20;;;;;;5094145;28;20050;-84
2022/09/13 07:13:36;;;;;;;11.80;3.65;;;21.80;56.70;;;;;;5065907;28;20391;-81
2022/09/13 07:16:04;;;;;;;9.40;8.48;;;21.60;56.90;;;;;;5055933;28;20070;-81
2022/09/13 07:18:31;;;;;;;5.10;3.60;;;21.80;56.20;;;;;;5087311;28;20452;-81
2022/09/13 07:21:08;;;;;;;6.30;3.50;;;22.40;55.80;;;;;;5075688;28;20047;-83
2022/09/13 07:23:37;;;;;;;10.23;3.20;;;22.60;55.50;;;;;;5075837;28;20026;-82
2022/09/13 07:26:04;;;;;;;5.35;3.20;;;22.70;54.90;;;;;;5093745;28;20146;-78
2022/09/13 07:28:37;;;;;;;6.50;3.20;;;22.50;54.80;;;;;;5092984;28;20096;-81
2022/09/13 07:31:04;;;;;;;4.45;3.20;;;22.60;54.90;;;;;;5073665;28;20150;-81
2022/09/13 07:33:30;;;;;;;8.43;3.35;;;22.70;55.60;;;;;;5073157;28;20501;-79
2022/09/13 07:35:58;;;;;;;4.93;3.03;;;22.70;55.30;;;;;;4717247;28;10000219;-82
2022/09/13 07:38:24;;;;;;;5.40;4.90;;;22.40;54.70;;;;;;5075105;28;20024;-85
2022/09/13 07:40:57;;;;;;;7.63;3.47;;;22.50;56.20;;;;;;5074372;28;20493;-81
2022/09/13 07:43:27;;;;;;;6.15;3.05;;;23.00;56.80;;;;;;5074389;28;20477;-83
2022/09/13 07:45:58;;;;;;;5.25;3.30;;;23.10;56.40;;;;;;5073711;28;20088;-80
2022/09/13 07:48:24;;;;;;;4.05;3.08;;;23.30;56.10;;;;;;5084733;28;20056;-84
2022/09/13 07:51:10;;;;;;;5.18;2.90;;;23.40;54.90;;;;;;5071291;28;20021;-81
2022/09/13 07:53:38;;;;;;;4.35;3.00;;;23.50;54.60;;;;;;5079224;28;20070;-77
2022/09/13 07:56:09;;;;;;;4.47;2.97;;;23.90;54.60;;;;;;5060677;28;20028;-79
2022/09/13 07:58:36;;;;;;;5.32;2.80;;;24.20;54.30;;;;;;5089387;28;20020;-79
2022/09/13 08:01:12;;;;;;;7.43;2.70;;;24.40;52.60;;;;;;5090967;28;20024;-78
2022/09/13 08:03:38;;;;;;;5.68;3.00;;;24.30;53.00;;;;;;5072736;28;20047;-79
2022/09/13 08:06:05;;;;;;;9.90;3.15;;;24.40;52.90;;;;;;5079951;28;20029;-79
2022/09/13 08:08:31;;;;;;;5.60;2.85;;;24.20;53.00;;;;;;5054079;28;20597;-80
2022/09/13 08:10:57;;;;;;;4.30;2.90;;;23.80;53.40;;;;;;5083410;28;20028;-83
2022/09/13 08:13:23;;;;;;;6.00;3.25;;;23.70;53.70;;;;;;5063854;28;20714;-80
2022/09/13 08:15:50;;;;;;;4.20;3.25;;;23.70;53.00;;;;;;5062351;28;20479;-86
2022/09/13 08:18:17;;;;;;;6.03;4.75;;;23.70;54.60;;;;;;5064984;28;20375;-82
2022/09/13 08:20:42;;;;;;;6.38;3.00;;;23.90;52.70;;;;;;5088181;28;20024;-80
2022/09/13 08:23:10;;;;;;;5.38;2.65;;;23.70;54.20;;;;;;5076498;28;20664;-82
2022/09/13 08:25:37;;;;;;;4.88;2.80;;;24.00;54.30;;;;;;4739307;28;9999794;-76
2022/09/13 08:28:15;;;;;;;4.53;2.60;;;24.30;53.00;;;;;;5076070;28;20026;-80
2022/09/13 08:30:42;;;;;;;5.72;2.80;;;24.70;51.90;;;;;;5094658;28;20031;-80
2022/09/13 08:33:10;;;;;;;7.43;2.90;;;24.90;51.80;;;;;;5093452;28;20055;-81
2022/09/13 08:35:36;;;;;;;4.38;2.47;;;25.30;51.40;;;;;;5073197;28;20127;-80
2022/09/13 08:38:03;;;;;;;6.22;2.70;;;24.80;49.40;;;;;;5074459;28;20538;-83
2022/09/13 08:40:52;;;;;;;4.18;2.60;;;24.60;50.70;;;;;;5075657;28;20047;-80
2022/09/13 08:43:28;;;;;;;4.40;2.67;;;24.60;51.00;;;;;;5077235;28;20027;-79
2022/09/13 08:46:05;;;;;;;5.15;2.75;;;25.10;51.60;;;;;;5096616;28;20020;-77
2022/09/13 08:48:43;;;;;;;3.75;2.50;;;25.70;51.00;;;;;;5094910;28;20039;-79
2022/09/13 08:51:36;;;;;;;6.43;2.63;;;25.60;49.30;;;;;;4740413;28;10000356;-76
2022/09/13 08:54:02;;;;;;;6.30;2.67;;;25.40;49.80;;;;;;5073535;28;20422;-77
2022/09/13 08:56:42;;;;;;;7.43;2.72;;;25.40;49.50;;;;;;5074108;28;20441;-79
2022/09/13 08:59:30;;;;;;;6.67;2.70;;;25.90;50.00;;;;;;5065729;28;20405;-78
2022/09/13 09:02:13;;;;;;;5.43;2.83;;;26.30;49.60;;;;;;5054560;28;20114;-79
2022/09/13 09:04:54;;;;;;;4.13;2.63;;;26.50;49.80;;;;;;5092536;28;20051;-78
2022/09/13 09:07:31;;;;;;;;;;;26.50;49.10;;;;;;5093293;28;20666;-78
2022/09/13 09:10:16;;;;;;;6.30;2.70;;;26.50;50.50;;;;;;5072960;28;19912;-77
2022/09/13 09:12:49;;;;;;;4.57;2.60;;;26.40;49.60;;;;;;5054002;28;20045;-79
2022/09/13 09:15:28;;;;;;;5.00;2.50;;;26.80;48.70;;;;;;5071566;28;20039;-82
2022/09/13 09:17:59;;;;;;;3.85;2.45;;;26.90;49.90;;;;;;5069506;28;20036;-76
2022/09/13 09:20:32;;;;;;;4.07;2.30;;;27.00;48.60;;;;;;5092519;28;20093;-81
2022/09/13 09:23:06;;;;;;;5.50;2.55;;;26.50;48.80;;;;;;5075589;28;20024;-78
2022/09/13 09:25:33;;;;;;;4.97;2.50;;;26.70;49.20;;;;;;5092990;28;20410;-77
2022/09/13 09:28:00;;;;;;;5.78;2.50;;;26.70;49.60;;;;;;5068790;28;20027;-80
2022/09/13 09:30:38;;;;;;;5.65;2.78;;;27.00;49.20;;;;;;5065955;28;20222;-81
2022/09/13 09:33:21;;;;;;;7.68;7.07;;;27.60;47.50;;;;;;5060873;28;20816;-80
2022/09/13 09:36:00;;;;;;;4.68;2.30;;;27.50;48.00;;;;;;5078270;28;20395;-82
2022/09/13 09:38:41;;;;;;;4.78;2.55;;;27.60;47.50;;;;;;5072925;28;20032;-82
2022/09/13 09:41:33;;;;;;;3.47;2.20;;;27.70;47.00;;;;;;5062141;28;20082;-84
2022/09/13 09:44:17;;;;;;;4.03;2.20;;;28.10;45.60;;;;;;5054263;28;20029;-84
2022/09/13 09:46:48;;;;;;;4.57;2.38;;;27.70;46.30;;;;;;5057438;28;20359;-78
2022/09/13 09:52:29;;;;;;;3.72;2.40;;;27.60;46.50;;;;;;5089196;28;20105;-83
2022/09/13 09:55:11;;;;;;;4.00;2.50;;;28.00;46.80;;;;;;5082405;28;20117;-85
2022/09/13 09:58:00;;;;;;;3.40;2.15;;;28.20;45.70;;;;;;5073355;28;20398;-80
2022/09/13 10:00:35;;;;;;;22.63;21.03;;;28.20;46.70;;;;;;5073991;28;20031;-83
2022/09/13 10:03:07;;;;;;;3.80;2.20;;;28.30;46.30;;;;;;5054112;28;20555;-81
2022/09/13 10:05:34;;;;;;;4.22;2.20;;;28.40;45.10;;;;;;5085215;28;20046;-79
2022/09/13 10:08:20;;;;;;;3.80;1.83;;;28.40;44.50;;;;;;5086869;28;20073;-79
2022/09/13 10:10:54;;;;;;;3.42;2.03;;;28.60;45.20;;;;;;5073138;28;20023;-79
2022/09/13 10:13:25;;;;;;;3.60;2.22;;;28.90;44.30;;;;;;5076867;28;20501;-79
2022/09/13 10:16:02;;;;;;;3.25;2.00;;;29.00;44.80;;;;;;5071597;28;20107;-77
2022/09/13 10:18:30;;;;;;;3.95;2.17;;;28.80;45.10;;;;;;5082436;28;20493;-77
2022/09/13 10:21:02;;;;;;;3.40;2.00;;;29.00;45.20;;;;;;4730435;28;9999920;-80
2022/09/13 10:23:34;;;;;;;4.32;2.00;;;28.70;44.90;;;;;;5053877;28;20082;-78
2022/09/13 10:26:04;;;;;;;3.67;1.88;;;28.70;45.50;;;;;;5053662;28;20036;-77
2022/09/13 10:28:34;;;;;;;7.00;2.20;;;29.00;44.90;;;;;;5056521;28;20028;-91
2022/09/13 10:31:09;;;;;;;4.15;2.05;;;29.20;45.40;;;;;;5056002;28;20029;-83
2022/09/13 10:33:36;;;;;;;3.45;2.03;;;29.50;44.70;;;;;;5056376;28;20188;-78
2022/09/13 10:36:25;;;;;;;4.03;2.38;;;29.60;44.60;;;;;;5074373;28;20037;-82
2022/09/13 10:38:58;;;;;;;4.18;2.20;;;29.60;44.80;;;;;;5056045;28;20196;-78
2022/09/13 10:41:26;;;;;;;3.25;1.98;;;29.40;43.80;;;;;;5074053;28;20498;-79
2022/09/13 10:44:01;;;;;;;4.05;2.20;;;29.30;44.40;;;;;;5056098;28;20024;-82
2022/09/13 10:46:30;;;;;;;3.58;2.33;;;29.30;44.90;;;;;;5073849;28;20551;-75
2022/09/13 10:48:56;;;;;;;4.97;1.90;;;29.40;44.10;;;;;;5056195;28;20032;-83
2022/09/13 10:51:25;;;;;;;3.05;2.10;;;29.50;44.40;;;;;;5056730;28;20157;-84
2022/09/13 10:54:06;;;;;;;3.40;2.10;;;29.80;44.80;;;;;;5074028;28;20016;-82
2022/09/13 10:56:32;;;;;;;4.05;2.20;;;29.90;44.60;;;;;;5073661;28;20100;-86
2022/09/13 10:59:18;;;;;;;3.83;2.00;;;30.00;44.40;;;;;;5073667;28;20074;-76
2022/09/13 11:02:03;;;;;;;3.63;2.13;;;29.80;43.20;;;;;;5073847;28;20371;-82
2022/09/13 11:04:31;;;;;;;3.65;2.10;;;29.20;43.70;;;;;;5073955;28;20495;-81
2022/09/13 11:07:09;;;;;;;3.47;2.00;;;29.10;44.40;;;;;;5073568;28;20035;-78
2022/09/13 11:10:02;;;;;;;7.00;2.20;;;29.00;44.00;;;;;;5073049;28;20430;-77
2022/09/13 11:12:40;;;;;;;3.92;2.00;;;29.00;44.40;;;;;;5072976;28;20034;-80
2022/09/13 11:15:37;;;;;;;3.00;2.13;;;29.10;43.90;;;;;;5073173;28;20365;-77
2022/09/13 11:18:35;;;;;;;3.35;2.05;;;29.10;44.20;;;;;;5073539;28;20036;-80
2022/09/13 11:21:09;;;;;;;7.50;2.05;;;29.20;44.30;;;;;;5051918;28;20033;-77
2022/09/13 11:23:45;;;;;;;14.90;13.80;;;29.10;43.50;;;;;;5073306;28;20475;-86
2022/09/13 11:26:23;;;;;;;3.05;1.90;;;29.30;44.60;;;;;;5055408;28;20032;-80
2022/09/13 11:28:52;;;;;;;3.08;1.95;;;29.50;44.10;;;;;;5055296;28;20378;-79
2022/09/13 11:31:53;;;;;;;3.05;1.83;;;29.80;43.80;;;;;;5055211;28;20021;-78
2022/09/13 11:34:27;;;;;;;4.22;2.05;;;29.60;43.10;;;;;;4973009;28;20466;-79
2022/09/13 11:37:02;;;;;;;4.25;2.08;;;29.60;44.10;;;;;;4956319;28;20039;-87
2022/09/13 11:39:35;;;;;;;3.33;2.00;;;29.70;42.60;;;;;;4972392;28;20175;-89
2022/09/13 11:42:10;;;;;;;3.25;2.00;;;29.60;42.30;;;;;;4972219;28;20030;-80
2022/09/13 11:44:48;;;;;;;3.50;2.00;;;29.20;42.70;;;;;;4974759;28;20066;-83
2022/09/13 11:47:16;;;;;;;3.78;2.10;;;29.20;43.90;;;;;;4976222;28;20027;-80
2022/09/13 11:50:02;;;;;;;3.25;1.98;;;29.10;44.20;;;;;;4960229;28;20137;-84
2022/09/13 11:52:45;;;;;;;3.70;2.00;;;29.10;44.60;;;;;;4976281;28;20062;-79
2022/09/13 11:55:29;;;;;;;4.35;2.28;;;29.00;43.60;;;;;;4976777;28;20039;-88
2022/09/13 11:57:59;;;;;;;6.22;2.42;;;29.20;44.40;;;;;;4976465;28;20050;-77
2022/09/13 12:00:30;;;;;;;;;;;29.30;44.30;;;;;;4976392;28;20029;-79
2022/09/13 12:03:08;;;;;;;6.00;2.35;;;29.10;44.70;;;;;;4975971;28;19922;-80
2022/09/13 12:05:53;;;;;;;5.10;2.20;;;29.10;45.30;;;;;;4976191;28;20042;-82
2022/09/13 12:08:28;;;;;;;3.42;2.30;;;29.20;45.90;;;;;;4976381;28;20031;-81
2022/09/13 12:11:03;;;;;;;3.40;2.20;;;29.00;44.80;;;;;;5063629;28;20040;-76
2022/09/13 12:13:30;;;;;;;3.50;2.30;;;29.10;45.00;;;;;;5055271;28;20021;-78
2022/09/13 12:16:04;;;;;;;5.10;2.30;;;29.20;44.20;;;;;;5055088;28;20391;-80
2022/09/13 12:18:49;;;;;;;4.65;2.25;;;29.00;44.70;;;;;;4704037;28;9999634;-82
2022/09/13 12:21:22;;;;;;;3.67;2.40;;;29.00;45.00;;;;;;5052649;28;20060;-77
2022/09/13 12:24:14;;;;;;;7.75;7.15;;;28.90;45.30;;;;;;5055224;28;20468;-77
2022/09/13 12:27:03;;;;;;;5.35;2.55;;;28.80;45.50;;;;;;5042190;28;20376;-81
2022/09/13 12:29:38;;;;;;;3.78;2.47;;;28.80;44.70;;;;;;5054622;28;20021;-80
2022/09/13 12:32:08;;;;;;;3.83;2.30;;;28.80;44.70;;;;;;5056096;28;20025;-80
2022/09/13 12:34:44;;;;;;;4.97;2.20;;;28.90;45.40;;;;;;5056312;28;20116;-78
2022/09/13 12:37:21;;;;;;;4.38;2.42;;;29.00;45.20;;;;;;5055086;28;20383;-83
2022/09/13 12:40:28;;;;;;;3.97;2.30;;;29.20;46.30;;;;;;5056339;28;20033;-83
2022/09/13 12:43:23;;;;;;;4.90;2.53;;;29.40;46.00;;;;;;5038748;28;20399;-83
2022/09/13 12:46:22;;;;;;;4.10;2.40;;;29.50;45.70;;;;;;5055946;28;20017;-79
2022/09/13 12:49:03;;;;;;;5.15;2.35;;;29.30;44.70;;;;;;5045411;28;20037;-81
2022/09/13 12:51:48;;;;;;;29.30;3.03;;;29.30;45.10;;;;;;5056216;28;20029;-81
2022/09/13 12:54:48;;;;;;;4.10;2.47;;;29.40;45.90;;;;;;5054673;28;20032;-79
2022/09/13 12:57:22;;;;;;;3.95;2.10;;;29.50;45.30;;;;;;4994425;28;20494;-80
2022/09/13 13:00:08;;;;;;;4.20;2.50;;;29.30;44.40;;;;;;4994582;28;20030;-80
2022/09/13 13:02:41;;;;;;;5.93;2.60;;;29.20;44.50;;;;;;4994464;28;20470;-77
2022/09/13 13:05:34;;;;;;;3.88;2.50;;;29.10;45.30;;;;;;4994028;28;20089;-84
2022/09/13 13:08:06;;;;;;;5.40;2.22;;;29.00;44.00;;;;;;4994047;28;20417;-77
2022/09/13 13:10:37;;;;;;;3.63;2.20;;;28.90;45.50;;;;;;4978118;28;20440;-79
2022/09/13 13:13:30;;;;;;;3.92;2.35;;;28.80;45.00;;;;;;4994577;28;20022;-79
2022/09/13 13:15:59;;;;;;;5.40;4.07;;;28.50;44.70;;;;;;4993989;28;20038;-79
2022/09/13 13:18:47;;;;;;;3.40;2.20;;;28.60;46.10;;;;;;4994267;28;20052;-79
2022/09/13 13:21:42;;;;;;;3.35;2.30;;;28.70;45.20;;;;;;4993847;28;20106;-82
2022/09/13 13:24:22;;;;;;;3.95;2.30;;;28.50;44.60;;;;;;4976151;28;20070;-76
2022/09/13 13:26:50;;;;;;;4.63;2.67;;;28.60;45.10;;;;;;4993689;28;20096;-78
2022/09/13 13:29:24;;;;;;;3.10;2.05;;;28.90;45.50;;;;;;4993775;28;20038;-78